createdAt,value
2019-05-16T00:01:33.164Z,11.10
2019-05-16T00:04:05.398Z,11.07
2019-05-16T00:06:40.303Z,11.05
2019-05-16T00:09:12.562Z,11.03
2019-05-16T00:11:44.776Z,11.01
2019-05-16T00:14:18.821Z,10.99
2019-05-16T00:16:50.924Z,10.97
2019-05-16T00:19:23.227Z,10.93
2019-05-16T00:21:55.491Z,10.87
2019-05-16T00:24:29.137Z,10.83
2019-05-16T00:27:01.651Z,10.81
2019-05-16T00:29:33.932Z,10.80
2019-05-16T00:32:08.421Z,10.78
2019-05-16T00:34:42.294Z,10.73
2019-05-16T00:37:14.565Z,10.68
2019-05-16T00:39:48.225Z,10.67
2019-05-16T00:42:20.611Z,10.59
2019-05-16T00:44:52.805Z,10.54
2019-05-16T00:47:25.048Z,10.51
2019-05-16T00:49:58.178Z,10.48
2019-05-16T00:52:30.813Z,10.43
2019-05-16T00:55:03.026Z,10.42
2019-05-16T00:57:35.248Z,10.38
2019-05-16T01:00:08.243Z,10.36
2019-05-16T01:02:40.650Z,10.33
2019-05-16T01:05:14.454Z,10.29
2019-05-16T01:07:48.059Z,10.25
2019-05-16T01:10:21.523Z,10.22
2019-05-16T01:12:53.741Z,10.19
2019-05-16T01:15:26.215Z,10.15
2019-05-16T01:17:58.903Z,10.08
2019-05-16T01:20:31.292Z,10.02
2019-05-16T01:23:03.531Z,9.92
2019-05-16T01:25:35.759Z,9.89
2019-05-16T01:28:08.880Z,9.84
2019-05-16T01:30:41.425Z,9.79
2019-05-16T01:33:13.628Z,9.74
2019-05-16T01:35:47.887Z,9.72
2019-05-16T01:38:20.112Z,9.71
2019-05-16T01:40:52.346Z,9.74
2019-05-16T01:43:24.594Z,9.74
2019-05-16T01:45:57.833Z,9.70
2019-05-16T01:48:30.160Z,9.68
2019-05-16T01:51:02.474Z,9.65
2019-05-16T01:53:34.747Z,9.64
2019-05-16T01:56:08.546Z,9.61
2019-05-16T01:58:40.950Z,9.57
2019-05-16T02:01:15.865Z,9.57
2019-05-16T02:03:48.140Z,9.56
2019-05-16T02:06:20.514Z,9.52
2019-05-16T02:08:52.745Z,9.49
2019-05-16T02:11:24.961Z,9.45
2019-05-16T02:13:58.595Z,9.44
2019-05-16T02:16:31.140Z,9.41
2019-05-16T02:19:03.358Z,9.40
2019-05-16T02:24:08.865Z,9.41
2019-05-16T02:26:41.320Z,9.45
2019-05-16T02:29:15.606Z,9.43
2019-05-16T02:31:51.089Z,9.42
2019-05-16T02:34:22.112Z,9.39
2019-05-16T02:37:14.758Z,9.37
2019-05-16T02:39:30.569Z,9.33
2019-05-16T02:42:02.203Z,9.30
2019-05-16T02:44:34.452Z,9.25
2019-05-16T02:47:06.635Z,9.19
2019-05-16T02:49:41.835Z,9.14
2019-05-16T02:52:13.990Z,9.11
2019-05-16T02:54:51.556Z,9.08
2019-05-16T02:57:22.422Z,9.06
2019-05-16T02:59:54.618Z,9.03
2019-05-16T03:02:26.831Z,8.97
2019-05-16T03:05:00.915Z,8.91
2019-05-16T03:07:41.460Z,8.87
2019-05-16T03:10:07.313Z,8.81
2019-05-16T03:12:41.121Z,8.77
2019-05-16T03:15:13.508Z,8.72
2019-05-16T03:17:45.733Z,8.70
2019-05-16T03:20:21.035Z,8.68
2019-05-16T03:22:52.134Z,8.65
2019-05-16T03:25:24.452Z,8.61
2019-05-16T03:27:56.674Z,8.60
2019-05-16T03:30:34.197Z,8.57
2019-05-16T03:33:05.584Z,8.60
2019-05-16T03:35:37.946Z,8.62
2019-05-16T03:38:12.227Z,8.64
2019-05-16T03:40:44.111Z,8.64
2019-05-16T03:43:16.484Z,8.62
2019-05-16T03:45:52.173Z,8.60
2019-05-16T03:48:22.650Z,8.60
2019-05-16T03:50:54.933Z,8.57
2019-05-16T03:53:27.146Z,8.52
2019-05-16T03:56:01.801Z,8.48
2019-05-16T03:58:33.312Z,8.45
2019-05-16T04:01:05.516Z,8.40
2019-05-16T04:03:40.961Z,8.36
2019-05-16T04:06:12.259Z,8.33
2019-05-16T04:08:44.617Z,8.28
2019-05-16T04:11:22.115Z,8.24
2019-05-16T04:13:51.050Z,8.25
2019-05-16T04:16:23.435Z,8.24
2019-05-16T04:18:55.652Z,8.24
2019-05-16T04:21:31.930Z,8.24
2019-05-16T04:24:01.815Z,8.19
2019-05-16T04:26:36.064Z,8.18
2019-05-16T04:29:11.800Z,8.15
2019-05-16T04:31:44.308Z,8.11
2019-05-16T04:34:16.559Z,8.06
2019-05-16T04:36:51.394Z,8.04
2019-05-16T04:39:22.704Z,8.02
2019-05-16T04:41:54.934Z,8.05
2019-05-16T04:44:30.648Z,8.02
2019-05-16T04:47:01.748Z,7.98
2019-05-16T04:49:35.341Z,7.94
2019-05-16T04:52:07.662Z,7.93
2019-05-16T04:54:41.882Z,7.92
2019-05-16T04:57:13.692Z,7.93
2019-05-16T04:59:45.955Z,7.96
2019-05-16T05:02:21.083Z,7.99
2019-05-16T05:04:52.148Z,8.03
2019-05-16T05:07:24.446Z,8.10
2019-05-16T05:09:56.718Z,8.18
2019-05-16T05:12:31.538Z,8.30
2019-05-16T05:15:02.948Z,8.37
2019-05-16T05:17:35.262Z,8.36
2019-05-16T05:20:10.427Z,8.33
2019-05-16T05:22:41.536Z,8.31
2019-05-16T05:25:13.826Z,8.29
2019-05-16T05:27:47.020Z,8.36
2019-05-16T05:30:21.131Z,8.43
2019-05-16T05:32:53.351Z,8.46
2019-05-16T05:35:25.936Z,8.65
2019-05-16T05:38:00.348Z,8.93
2019-05-16T05:40:32.176Z,9.07
2019-05-16T05:43:04.439Z,9.26
2019-05-16T05:45:36.681Z,9.38
2019-05-16T05:48:10.696Z,9.45
2019-05-16T05:50:43.193Z,9.57
2019-05-16T05:53:15.638Z,9.68
2019-05-16T05:55:50.642Z,9.76
2019-05-16T05:58:21.971Z,9.85
2019-05-16T06:00:54.334Z,10.06
2019-05-16T06:03:26.637Z,10.24
2019-05-16T06:06:01.053Z,10.41
2019-05-16T06:08:33.042Z,10.43
2019-05-16T06:11:05.289Z,10.37
2019-05-16T06:13:40.501Z,10.22
2019-05-16T06:16:12.740Z,10.04
2019-05-16T06:18:45.009Z,9.98
2019-05-16T06:21:20.087Z,10.25
2019-05-16T06:23:51.480Z,10.48
2019-05-16T06:26:23.703Z,10.58
2019-05-16T06:28:55.934Z,10.56
2019-05-16T06:31:31.092Z,10.51
2019-05-16T06:34:08.173Z,10.55
2019-05-16T06:36:36.152Z,10.70
2019-05-16T06:39:11.204Z,10.93
2019-05-16T06:41:42.421Z,11.23
2019-05-16T06:44:14.661Z,11.38
2019-05-16T06:47:03.587Z,11.52
2019-05-16T06:49:21.056Z,11.70
2019-05-16T06:51:53.640Z,11.92
2019-05-16T06:54:25.958Z,12.16
2019-05-16T06:57:00.196Z,12.33
2019-05-16T06:59:32.169Z,12.40
2019-05-16T07:02:04.394Z,12.59
2019-05-16T07:04:36.731Z,12.64
2019-05-16T07:07:11.934Z,12.75
2019-05-16T07:09:57.322Z,13.03
2019-05-16T07:12:20.200Z,13.17
2019-05-16T07:14:52.018Z,13.41
2019-05-16T07:17:24.230Z,13.42
2019-05-16T07:19:56.489Z,13.19
2019-05-16T07:22:31.166Z,13.05
2019-05-16T07:25:02.654Z,12.96
2019-05-16T07:27:35.210Z,13.03
2019-05-16T07:30:07.430Z,13.23
2019-05-16T07:32:40.434Z,13.39
2019-05-16T07:35:12.950Z,13.40
2019-05-16T07:37:45.220Z,13.29
2019-05-16T07:40:23.646Z,13.37
2019-05-16T07:42:51.427Z,13.51
2019-05-16T07:45:24.711Z,13.78
2019-05-16T07:48:00.107Z,14.10
2019-05-16T07:50:32.439Z,14.52
2019-05-16T07:53:04.717Z,14.79
2019-05-16T07:55:37.014Z,14.58
2019-05-16T07:58:10.249Z,14.32
2019-05-16T08:00:52.391Z,14.30
2019-05-16T08:03:19.759Z,14.29
2019-05-16T08:05:51.825Z,14.18
2019-05-16T08:08:24.739Z,13.96
2019-05-16T08:10:57.286Z,13.73
2019-05-16T08:13:30.866Z,13.64
2019-05-16T08:16:03.311Z,13.88
2019-05-16T08:18:35.527Z,14.21
2019-05-16T08:21:10.655Z,14.67
2019-05-16T08:23:41.822Z,15.08
2019-05-16T08:26:14.115Z,15.59
2019-05-16T08:28:46.335Z,15.65
2019-05-16T08:31:21.389Z,15.66
2019-05-16T08:33:54.963Z,15.67
2019-05-16T08:36:26.512Z,15.70
2019-05-16T08:39:01.148Z,15.74
2019-05-16T08:41:32.823Z,15.74
2019-05-16T08:44:05.027Z,15.79
2019-05-16T08:46:41.155Z,15.97
2019-05-16T08:49:12.548Z,15.91
2019-05-16T08:51:45.856Z,16.04
2019-05-16T08:54:20.705Z,16.26
2019-05-16T08:56:52.021Z,16.31
2019-05-16T08:59:24.269Z,16.25
2019-05-16T09:01:58.185Z,16.26
2019-05-16T09:07:04.954Z,15.95
2019-05-16T09:09:44.196Z,16.05
2019-05-16T09:10:30.922Z,16.18
2019-05-16T09:12:12.235Z,15.86
2019-05-16T09:14:47.299Z,15.63
2019-05-16T09:17:18.370Z,15.73
2019-05-16T09:19:51.734Z,15.80
2019-05-16T09:22:24.098Z,16.05
2019-05-16T09:24:57.620Z,16.42
2019-05-16T09:27:30.290Z,16.89
2019-05-16T09:30:02.502Z,17.16
2019-05-16T09:32:36.982Z,17.29
2019-05-16T09:35:08.891Z,17.35
2019-05-16T09:37:41.176Z,17.46
2019-05-16T09:40:13.539Z,17.51
2019-05-16T09:42:47.357Z,17.49
2019-05-16T09:45:19.915Z,17.62
2019-05-16T09:47:52.201Z,17.91
2019-05-16T09:50:26.482Z,17.97
2019-05-16T09:52:58.382Z,17.81
2019-05-16T09:55:30.632Z,17.72
2019-05-16T09:58:02.877Z,17.72
2019-05-16T10:00:37.459Z,17.61
2019-05-16T10:03:09.288Z,17.32
2019-05-16T10:05:42.808Z,17.29
2019-05-16T10:08:17.070Z,17.53
2019-05-16T10:10:48.982Z,17.27
2019-05-16T10:13:21.246Z,17.30
2019-05-16T10:15:53.453Z,17.62
2019-05-16T10:18:27.778Z,17.82
2019-05-16T10:21:00.842Z,18.09
2019-05-16T10:23:33.166Z,18.44
2019-05-16T10:26:05.378Z,18.73
2019-05-16T10:28:38.618Z,18.90
2019-05-16T10:31:11.018Z,18.97
2019-05-16T10:33:43.236Z,19.04
2019-05-16T10:36:17.354Z,19.09
2019-05-16T10:38:49.492Z,19.20
2019-05-16T10:41:21.813Z,19.16
2019-05-16T10:43:54.031Z,19.11
2019-05-16T10:46:26.975Z,19.03
2019-05-16T10:48:59.368Z,18.83
2019-05-16T10:51:31.729Z,18.78
2019-05-16T10:54:13.107Z,18.51
2019-05-16T10:56:40.357Z,18.47
2019-05-16T10:59:51.222Z,18.56
2019-05-16T11:01:47.241Z,18.71
2019-05-16T11:04:29.213Z,18.84
2019-05-16T11:06:57.210Z,18.69
2019-05-16T11:09:29.306Z,18.73
2019-05-16T11:12:01.542Z,18.62
2019-05-16T11:14:33.778Z,18.42
2019-05-16T11:17:07.349Z,18.80
2019-05-16T11:19:40.372Z,19.22
2019-05-16T11:22:12.699Z,19.44
2019-05-16T11:24:47.137Z,19.68
2019-05-16T11:27:19.675Z,20.06
2019-05-16T11:29:52.132Z,20.39
2019-05-16T11:32:27.016Z,20.93
2019-05-16T11:34:58.685Z,21.11
2019-05-16T11:37:31.444Z,21.32
2019-05-16T11:40:03.716Z,21.32
2019-05-16T11:42:37.810Z,21.15
2019-05-16T11:45:10.769Z,21.01
2019-05-16T11:47:43.404Z,21.43
2019-05-16T11:50:17.602Z,22.06
2019-05-16T11:52:49.600Z,24.27
2019-05-16T11:55:21.824Z,24.33
2019-05-16T11:57:56.750Z,23.32
2019-05-16T12:00:30.770Z,22.49
2019-05-16T12:03:03.256Z,21.83
2019-05-16T12:05:37.343Z,21.27
2019-05-16T12:08:09.426Z,21.74
2019-05-16T12:13:25.405Z,22.66
2019-05-16T12:15:49.012Z,24.76
2019-05-16T12:18:22.307Z,24.23
2019-05-16T12:20:56.418Z,23.79
2019-05-16T12:23:28.462Z,23.86
2019-05-16T12:26:00.721Z,23.53
2019-05-16T12:28:33.127Z,23.48
2019-05-16T12:31:07.143Z,23.35
2019-05-16T12:33:39.430Z,23.91
2019-05-16T12:36:12.464Z,23.60
2019-05-16T12:38:46.758Z,23.15
2019-05-16T12:41:19.264Z,23.57
2019-05-16T12:43:53.629Z,26.26
2019-05-16T12:46:27.184Z,29.27
2019-05-16T12:49:00.227Z,31.14
2019-05-16T12:51:33.047Z,32.13
2019-05-16T12:54:07.545Z,33.09
2019-05-16T12:56:40.395Z,34.16
2019-05-16T12:59:20.370Z,35.08
2019-05-16T13:01:48.301Z,35.20
2019-05-16T13:04:21.297Z,34.61
2019-05-16T13:06:54.271Z,34.41
2019-05-16T13:09:27.451Z,34.31
2019-05-16T13:12:00.307Z,34.82
2019-05-16T13:14:33.156Z,34.95
2019-05-16T13:17:07.273Z,35.49
2019-05-16T13:19:44.203Z,36.41
2019-05-16T13:22:17.209Z,36.81
2019-05-16T13:24:51.053Z,37.20
2019-05-16T13:27:23.888Z,36.18
2019-05-16T13:29:58.109Z,36.16
2019-05-16T13:32:31.211Z,36.04
2019-05-16T13:35:04.020Z,36.29
2019-05-16T13:37:36.953Z,35.74
2019-05-16T13:40:09.827Z,35.76
2019-05-16T13:42:42.660Z,36.15
2019-05-16T13:45:17.693Z,36.91
2019-05-16T13:47:50.092Z,36.77
2019-05-16T13:50:22.942Z,36.77
2019-05-16T13:52:58.391Z,36.43
2019-05-16T13:55:30.660Z,35.81
2019-05-16T13:58:03.889Z,35.10
2019-05-16T14:00:37.660Z,32.72
2019-05-16T14:03:10.792Z,31.08
2019-05-16T14:05:43.749Z,29.10
2019-05-16T14:08:17.094Z,27.10
2019-05-16T14:10:49.605Z,25.56
2019-05-16T14:13:21.900Z,24.44
2019-05-16T14:15:54.208Z,23.72
2019-05-16T14:18:27.266Z,23.14
2019-05-16T14:20:59.635Z,22.49
2019-05-16T14:23:31.917Z,22.04
2019-05-16T14:26:06.894Z,21.83
2019-05-16T14:28:38.188Z,21.82
2019-05-16T14:31:10.526Z,21.94
2019-05-16T14:33:42.727Z,22.05
2019-05-16T14:36:15.029Z,22.36
2019-05-16T14:38:47.247Z,22.43
2019-05-16T14:41:19.359Z,22.37
2019-05-16T14:43:51.639Z,22.28
2019-05-16T14:46:23.920Z,22.41
2019-05-16T14:48:56.163Z,22.67
2019-05-16T14:51:31.829Z,22.73
2019-05-16T14:54:02.884Z,22.97
2019-05-16T14:56:35.136Z,22.96
2019-05-16T14:59:08.241Z,23.24
2019-05-16T15:01:41.792Z,23.07
2019-05-16T15:04:14.069Z,22.85
2019-05-16T15:06:47.037Z,22.67
2019-05-16T15:09:20.640Z,22.64
2019-05-16T15:11:52.903Z,22.58
2019-05-16T15:14:27.839Z,22.73
2019-05-16T15:16:59.278Z,22.60
2019-05-16T15:19:31.597Z,22.20
2019-05-16T15:22:03.827Z,21.90
2019-05-16T15:24:37.040Z,21.66
2019-05-16T15:27:09.644Z,21.66
2019-05-16T15:29:42.281Z,21.65
2019-05-16T15:32:14.523Z,21.66
2019-05-16T15:34:47.978Z,21.55
2019-05-16T15:37:20.416Z,21.78
2019-05-16T15:39:54.312Z,21.67
2019-05-16T15:42:27.775Z,21.55
2019-05-16T15:45:00.543Z,21.32
2019-05-16T15:47:33.310Z,21.12
2019-05-16T15:50:08.019Z,21.06
2019-05-16T15:52:40.261Z,21.04
2019-05-16T15:55:12.647Z,20.90
2019-05-16T15:57:47.677Z,21.03
2019-05-16T16:00:20.281Z,21.03
2019-05-16T16:02:52.561Z,20.63
2019-05-16T16:05:26.665Z,20.41
2019-05-16T16:07:59.124Z,20.41
2019-05-16T16:10:31.378Z,20.23
2019-05-16T16:13:03.614Z,20.05
2019-05-16T16:15:49.886Z,20.05
2019-05-16T16:18:09.941Z,20.07
2019-05-16T16:20:42.178Z,19.90
2019-05-16T16:23:14.392Z,19.99
2019-05-16T16:25:50.803Z,20.10
2019-05-16T16:28:20.722Z,20.13
2019-05-16T16:30:52.956Z,20.08
2019-05-16T16:33:29.755Z,19.93
2019-05-16T16:36:01.284Z,19.70
2019-05-16T16:38:33.812Z,19.48
2019-05-16T16:41:08.048Z,19.42
2019-05-16T16:43:40.095Z,19.48
2019-05-16T16:46:13.797Z,19.53
2019-05-16T16:48:46.104Z,19.47
2019-05-16T16:51:18.397Z,19.27
2019-05-16T16:53:50.951Z,19.11
2019-05-16T16:56:23.277Z,19.13
2019-05-16T16:58:55.661Z,19.22
2019-05-16T17:01:27.907Z,21.05
2019-05-16T17:04:01.280Z,24.38
2019-05-16T17:06:33.582Z,25.96
2019-05-16T17:09:07.504Z,27.74
2019-05-16T17:11:40.586Z,29.13
2019-05-16T17:14:13.459Z,28.93
2019-05-16T17:16:47.427Z,26.31
2019-05-16T17:19:19.836Z,24.60
2019-05-16T17:22:06.355Z,23.75
2019-05-16T17:24:27.390Z,22.99
2019-05-16T17:26:59.903Z,22.72
2019-05-16T17:29:32.181Z,22.83
2019-05-16T17:32:07.056Z,23.98
2019-05-16T17:34:38.523Z,23.52
2019-05-16T17:37:11.026Z,21.90
2019-05-16T17:39:43.380Z,20.46
2019-05-16T17:42:16.601Z,19.55
2019-05-16T17:44:49.390Z,19.06
2019-05-16T17:47:21.778Z,18.47
2019-05-16T17:49:54.209Z,18.18
2019-05-16T17:52:27.310Z,17.90
2019-05-16T17:55:00.929Z,17.83
2019-05-16T17:57:33.496Z,17.70
2019-05-16T18:00:07.108Z,17.72
2019-05-16T18:02:39.804Z,17.70
2019-05-16T18:05:12.079Z,17.68
2019-05-16T18:07:44.324Z,17.61
2019-05-16T18:10:16.694Z,17.59
2019-05-16T18:12:49.016Z,17.41
2019-05-16T18:15:21.221Z,17.12
2019-05-16T18:17:53.473Z,17.07
2019-05-16T18:20:26.591Z,17.01
2019-05-16T18:22:59.036Z,16.89
2019-05-16T18:25:31.292Z,16.76
2019-05-16T18:28:03.683Z,16.64
2019-05-16T18:30:36.592Z,16.43
2019-05-16T18:33:09.196Z,16.32
2019-05-16T18:35:41.840Z,16.27
2019-05-16T18:38:14.098Z,16.15
2019-05-16T18:40:47.308Z,15.97
2019-05-16T18:43:21.505Z,15.94
2019-05-16T18:45:53.862Z,15.75
2019-05-16T18:48:27.236Z,15.64
2019-05-16T18:50:59.735Z,15.54
2019-05-16T18:53:32.205Z,15.36
2019-05-16T18:56:04.419Z,15.14
2019-05-16T18:58:37.229Z,14.86
2019-05-16T19:01:09.580Z,14.66
2019-05-16T19:03:41.927Z,14.69
2019-05-16T19:06:27.719Z,14.77
2019-05-16T19:09:02.741Z,14.75
2019-05-16T19:11:36.726Z,14.72
2019-05-16T19:14:09.073Z,14.66
2019-05-16T19:16:41.323Z,14.57
2019-05-16T19:19:13.556Z,14.56
2019-05-16T19:21:45.861Z,14.49
2019-05-16T19:24:18.246Z,14.35
2019-05-16T19:26:50.596Z,14.26
2019-05-16T19:29:22.895Z,14.23
2019-05-16T19:31:57.113Z,14.11
2019-05-16T19:34:29.100Z,14.04
2019-05-16T19:37:01.636Z,13.99
2019-05-16T19:39:33.905Z,14.00
2019-05-16T19:42:06.642Z,13.97
2019-05-16T19:44:38.857Z,13.95
2019-05-16T19:47:11.122Z,13.89
2019-05-16T19:49:43.366Z,13.87
2019-05-16T19:52:16.407Z,13.87
2019-05-16T19:54:49.147Z,13.86
2019-05-16T19:57:21.495Z,13.80
2019-05-16T19:59:53.781Z,13.66
2019-05-16T20:02:27.364Z,13.61
2019-05-16T20:05:01.137Z,13.63
2019-05-16T20:07:33.496Z,13.60
2019-05-16T20:10:08.960Z,13.45
2019-05-16T20:12:41.143Z,13.45
2019-05-16T20:15:13.442Z,13.53
2019-05-16T20:17:58.254Z,13.56
2019-05-16T20:20:19.933Z,13.60
2019-05-16T20:22:52.126Z,13.67
2019-05-16T20:25:26.818Z,13.66
2019-05-16T20:27:59.069Z,13.64
2019-05-16T20:30:31.333Z,13.59
2019-05-16T20:33:03.572Z,13.53
2019-05-16T20:35:37.471Z,13.54
2019-05-16T20:38:09.777Z,13.46
2019-05-16T20:40:42.087Z,13.35
2019-05-16T20:43:16.687Z,13.29
2019-05-16T20:45:48.296Z,13.30
2019-05-16T20:48:20.600Z,13.32
2019-05-16T20:50:52.830Z,13.35
2019-05-16T20:53:27.124Z,13.32
2019-05-16T20:55:59.352Z,13.30
2019-05-16T20:58:31.586Z,13.40
2019-05-16T21:01:03.828Z,13.45
2019-05-16T21:03:37.829Z,13.45
2019-05-16T21:06:11.269Z,13.45
2019-05-16T21:08:43.514Z,13.42
2019-05-16T21:11:17.179Z,13.39
2019-05-16T21:13:49.600Z,13.37
2019-05-16T21:16:21.895Z,13.33
2019-05-16T21:18:54.177Z,13.35
2019-05-16T21:21:27.425Z,13.42
2019-05-16T21:23:59.872Z,13.38
2019-05-16T21:26:32.195Z,13.36
2019-05-16T21:29:04.573Z,13.33
2019-05-16T21:31:36.956Z,13.20
2019-05-16T21:34:09.421Z,13.25
2019-05-16T21:36:41.711Z,13.29
2019-05-16T21:39:14.024Z,13.38
2019-05-16T21:41:47.256Z,13.45
2019-05-16T21:44:19.629Z,13.43
2019-05-16T21:46:53.499Z,13.45
2019-05-16T21:49:27.577Z,13.42
2019-05-16T21:52:00.100Z,13.46
2019-05-16T21:54:32.506Z,13.54
2019-05-16T21:57:06.385Z,13.56
2019-05-16T21:59:38.546Z,13.55
2019-05-16T22:02:10.789Z,13.57
2019-05-16T22:04:43.138Z,13.61
2019-05-16T22:07:16.595Z,13.59
2019-05-16T22:09:49.345Z,13.49
2019-05-16T22:12:22.672Z,13.39
2019-05-16T22:14:57.226Z,13.39
2019-05-16T22:17:30.211Z,13.44
2019-05-16T22:20:02.782Z,13.45
2019-05-16T22:22:38.107Z,13.51
2019-05-16T22:25:10.618Z,13.53
2019-05-16T22:27:42.867Z,13.40
2019-05-16T22:30:16.485Z,13.39
2019-05-16T22:32:48.935Z,13.39
2019-05-16T22:35:21.198Z,13.41
2019-05-16T22:37:56.491Z,13.35
2019-05-16T22:40:27.421Z,13.27
2019-05-16T22:42:59.825Z,13.17
2019-05-16T22:45:32.084Z,13.13
2019-05-16T22:48:06.783Z,13.15
2019-05-16T22:50:38.310Z,13.18
2019-05-16T22:53:10.846Z,13.24
2019-05-16T22:55:43.098Z,13.32
2019-05-16T22:58:16.396Z,13.31
2019-05-16T23:00:48.739Z,13.29
2019-05-16T23:03:21.007Z,13.35
2019-05-16T23:05:53.232Z,13.38
2019-05-16T23:08:27.204Z,13.34
2019-05-16T23:10:59.461Z,13.31
2019-05-16T23:13:31.895Z,13.38
2019-05-16T23:16:03.932Z,13.46
2019-05-16T23:18:37.516Z,13.44
2019-05-16T23:21:10.006Z,13.43
2019-05-16T23:23:42.350Z,13.44
2019-05-16T23:26:16.617Z,13.40
2019-05-16T23:28:50.839Z,13.40
2019-05-16T23:31:23.123Z,13.38
2019-05-16T23:33:56.478Z,13.26
2019-05-16T23:36:28.998Z,13.15
2019-05-16T23:39:01.250Z,13.16
2019-05-16T23:41:36.760Z,13.18
2019-05-16T23:44:08.762Z,13.11
2019-05-16T23:46:41.060Z,13.10
2019-05-16T23:49:13.278Z,13.15
2019-05-16T23:51:47.283Z,13.22
2019-05-16T23:54:20.022Z,13.27
2019-05-16T23:56:52.262Z,13.27
2019-05-16T23:59:24.524Z,13.31
